METEOROLOGIA BHB

26 - 00:00 - METAR SAZB 260000Z 09007KT CAVOK 16/07 Q1025 =

IMAGEN SATELITAL

WINDY